createdAt,value
2019-01-09T00:00:54.082Z,4.68
2019-01-09T00:03:22.476Z,4.62
2019-01-09T00:05:50.829Z,4.65
2019-01-09T00:08:19.394Z,4.66
2019-01-09T00:10:49.676Z,4.67
2019-01-09T00:13:18.066Z,4.70
2019-01-09T00:15:46.337Z,4.74
2019-01-09T00:18:16.217Z,4.53
2019-01-09T00:20:44.561Z,4.47
2019-01-09T00:23:12.828Z,4.47
2019-01-09T00:25:41.205Z,4.45
2019-01-09T00:28:09.567Z,4.44
2019-01-09T00:30:38.358Z,4.41
2019-01-09T00:33:06.791Z,4.40
2019-01-09T00:35:37.449Z,4.46
2019-01-09T00:38:05.399Z,4.43
2019-01-09T00:40:33.778Z,4.43
2019-01-09T00:43:02.156Z,4.39
2019-01-09T00:45:30.505Z,4.29
2019-01-09T00:47:58.811Z,4.15
2019-01-09T00:50:27.164Z,4.06
2019-01-09T00:52:55.489Z,3.95
2019-01-09T00:55:23.845Z,3.90
2019-01-09T00:57:52.159Z,3.88
2019-01-09T01:00:22.074Z,3.85
2019-01-09T01:03:05.463Z,3.76
2019-01-09T01:06:02.532Z,3.69
2019-01-09T01:08:50.840Z,3.62
2019-01-09T01:11:31.387Z,3.57
2019-01-09T01:14:22.222Z,3.52
2019-01-09T01:17:27.018Z,3.56
2019-01-09T01:20:01.342Z,3.55
2019-01-09T01:22:50.890Z,3.56
2019-01-09T01:25:40.542Z,3.55
2019-01-09T01:28:34.616Z,3.49
2019-01-09T01:31:08.835Z,3.48
2019-01-09T01:33:52.589Z,3.42
2019-01-09T01:36:39.370Z,3.43
2019-01-09T01:39:13.659Z,3.50
2019-01-09T01:42:09.082Z,3.58
2019-01-09T01:44:52.594Z,3.64
2019-01-09T01:47:54.160Z,3.74
2019-01-09T01:50:42.120Z,3.87
2019-01-09T01:53:13.709Z,3.87
2019-01-09T01:55:45.373Z,3.79
2019-01-09T01:58:40.959Z,3.70
2019-01-09T02:01:34.779Z,3.66
2019-01-09T02:04:18.103Z,3.65
2019-01-09T02:07:15.004Z,3.65
2019-01-09T02:10:18.195Z,3.66
2019-01-09T02:13:18.332Z,3.61
2019-01-09T02:16:06.388Z,3.53
2019-01-09T02:18:38.004Z,3.47
2019-01-09T02:21:12.304Z,3.39
2019-01-09T02:23:58.763Z,3.28
2019-01-09T02:26:45.237Z,3.22
2019-01-09T02:29:19.682Z,3.20
2019-01-09T02:32:05.876Z,3.20
2019-01-09T02:34:34.265Z,3.22
2019-01-09T02:37:02.606Z,3.28
2019-01-09T02:39:30.987Z,3.31
2019-01-09T02:41:59.258Z,3.36
2019-01-09T02:44:32.477Z,3.46
2019-01-09T02:46:57.644Z,3.52
2019-01-09T02:49:25.952Z,3.55
2019-01-09T02:51:54.348Z,3.09
2019-01-09T02:54:22.623Z,3.62
2019-01-09T02:56:51.123Z,3.64
2019-01-09T02:59:19.494Z,3.59
2019-01-09T03:01:47.802Z,3.47
2019-01-09T03:04:16.141Z,3.37
2019-01-09T03:06:44.470Z,3.29
2019-01-09T03:09:12.765Z,3.21
2019-01-09T03:11:41.262Z,3.21
2019-01-09T03:14:09.527Z,3.16
2019-01-09T03:16:37.800Z,3.13
2019-01-09T03:19:06.246Z,3.08
2019-01-09T03:21:34.555Z,3.09
2019-01-09T03:24:02.809Z,3.05
2019-01-09T03:26:31.099Z,2.97
2019-01-09T03:28:59.665Z,2.97
2019-01-09T03:31:28.008Z,2.97
2019-01-09T03:33:56.429Z,2.97
2019-01-09T03:36:32.552Z,3.00
2019-01-09T03:38:56.998Z,2.96
2019-01-09T03:41:25.341Z,2.92
2019-01-09T03:43:54.153Z,2.88
2019-01-09T03:46:22.417Z,2.85
2019-01-09T03:48:50.683Z,2.90
2019-01-09T03:51:19.182Z,2.89
2019-01-09T03:53:47.589Z,3.01
2019-01-09T03:56:16.005Z,3.11
2019-01-09T03:58:44.397Z,3.13
2019-01-09T04:01:12.681Z,3.20
2019-01-09T04:03:41.012Z,3.24
2019-01-09T04:06:09.333Z,3.22
2019-01-09T04:08:37.768Z,3.23
2019-01-09T04:11:06.139Z,3.23
2019-01-09T04:13:34.457Z,3.28
2019-01-09T04:16:02.854Z,3.33
2019-01-09T04:18:31.208Z,2.33
2019-01-09T04:20:59.515Z,3.38
2019-01-09T04:23:27.877Z,3.40
2019-01-09T04:25:56.166Z,3.43
2019-01-09T04:28:24.611Z,3.43
2019-01-09T04:30:52.879Z,3.39
2019-01-09T04:33:21.162Z,3.42
2019-01-09T04:35:49.444Z,3.42
2019-01-09T04:38:17.828Z,3.39
2019-01-09T04:40:47.687Z,3.45
2019-01-09T04:43:16.306Z,3.44
2019-01-09T04:45:44.653Z,3.40
2019-01-09T04:48:12.996Z,3.37
2019-01-09T04:50:41.461Z,3.36
2019-01-09T04:53:09.737Z,3.33
2019-01-09T04:55:38.044Z,3.39
2019-01-09T04:58:06.319Z,3.55
2019-01-09T05:00:34.740Z,3.58
2019-01-09T05:03:03.006Z,3.74
2019-01-09T05:05:31.334Z,3.76
2019-01-09T05:07:59.786Z,3.72
2019-01-09T05:10:28.059Z,3.67
2019-01-09T05:12:56.479Z,3.61
2019-01-09T05:15:24.859Z,3.55
2019-01-09T05:17:53.172Z,3.48
2019-01-09T05:20:21.529Z,3.46
2019-01-09T05:22:49.793Z,3.40
2019-01-09T05:25:18.171Z,3.37
2019-01-09T05:27:46.552Z,3.36
2019-01-09T05:30:14.823Z,3.33
2019-01-09T05:32:43.211Z,2.84
2019-01-09T05:35:11.967Z,3.30
2019-01-09T05:37:40.298Z,3.31
2019-01-09T05:40:09.151Z,3.31
2019-01-09T05:42:37.428Z,3.33
2019-01-09T05:45:05.914Z,3.36
2019-01-09T05:47:34.180Z,2.51
2019-01-09T05:50:02.558Z,3.32
2019-01-09T05:52:30.965Z,3.28
2019-01-09T05:54:59.238Z,3.27
2019-01-09T05:57:27.602Z,3.23
2019-01-09T05:59:55.969Z,3.22
2019-01-09T06:02:24.356Z,3.17
2019-01-09T06:04:53.976Z,3.16
2019-01-09T06:07:22.678Z,3.17
2019-01-09T06:09:52.990Z,3.15
2019-01-09T06:12:23.273Z,3.13
2019-01-09T06:14:51.662Z,3.13
2019-01-09T06:17:19.974Z,3.12
2019-01-09T06:19:48.370Z,3.11
2019-01-09T06:22:16.716Z,3.16
2019-01-09T06:24:45.062Z,3.17
2019-01-09T06:27:13.468Z,3.19
2019-01-09T06:29:41.724Z,3.13
2019-01-09T06:32:09.991Z,3.14
2019-01-09T06:34:38.410Z,3.18
2019-01-09T06:37:06.796Z,3.26
2019-01-09T06:39:35.067Z,3.32
2019-01-09T06:42:03.706Z,3.40
2019-01-09T06:44:31.984Z,3.43
2019-01-09T06:47:00.299Z,3.50
2019-01-09T06:49:28.663Z,3.49
2019-01-09T06:51:57.113Z,3.49
2019-01-09T06:54:25.664Z,3.46
2019-01-09T06:56:53.899Z,3.44
2019-01-09T06:59:22.389Z,3.43
2019-01-09T07:01:50.663Z,3.38
2019-01-09T07:04:18.983Z,3.39
2019-01-09T07:06:47.334Z,3.36
2019-01-09T07:09:15.737Z,3.33
2019-01-09T07:11:44.134Z,3.32
2019-01-09T07:14:12.508Z,3.32
2019-01-09T07:16:40.785Z,3.28
2019-01-09T07:19:09.078Z,3.25
2019-01-09T07:21:45.205Z,3.26
2019-01-09T07:24:07.714Z,3.16
2019-01-09T07:26:35.979Z,3.14
2019-01-09T07:29:04.413Z,3.12
2019-01-09T07:31:32.710Z,3.18
2019-01-09T07:34:00.981Z,3.23
2019-01-09T07:36:29.379Z,3.24
2019-01-09T07:38:58.370Z,3.21
2019-01-09T07:41:26.719Z,3.21
2019-01-09T07:43:55.093Z,3.23
2019-01-09T07:46:23.592Z,3.21
2019-01-09T07:48:51.971Z,3.22
2019-01-09T07:51:20.241Z,3.24
2019-01-09T07:53:48.647Z,3.18
2019-01-09T07:56:17.016Z,3.14
2019-01-09T07:58:45.320Z,3.12
2019-01-09T08:01:13.781Z,3.06
2019-01-09T08:03:42.103Z,3.04
2019-01-09T08:06:10.364Z,2.96
2019-01-09T08:08:38.691Z,2.94
2019-01-09T08:11:06.987Z,2.95
2019-01-09T08:13:35.291Z,3.01
2019-01-09T08:16:03.639Z,3.01
2019-01-09T08:18:31.907Z,3.07
2019-01-09T08:21:05.213Z,3.11
2019-01-09T08:23:30.512Z,3.15
2019-01-09T08:25:59.820Z,3.14
2019-01-09T08:28:28.362Z,3.14
2019-01-09T08:30:56.696Z,3.06
2019-01-09T08:33:25.075Z,3.00
2019-01-09T08:35:53.472Z,2.98
2019-01-09T08:38:21.806Z,2.97
2019-01-09T08:40:50.275Z,2.97
2019-01-09T08:43:18.670Z,2.97
2019-01-09T08:45:46.930Z,2.99
2019-01-09T08:48:15.313Z,3.27
2019-01-09T08:50:49.762Z,3.56
2019-01-09T08:53:18.027Z,3.84
2019-01-09T08:55:46.378Z,4.08
2019-01-09T08:58:14.773Z,4.32
2019-01-09T09:00:43.128Z,4.46
2019-01-09T09:03:11.394Z,4.65
2019-01-09T09:05:39.958Z,4.97
2019-01-09T09:08:12.250Z,5.20
2019-01-09T09:10:38.407Z,5.30
2019-01-09T09:13:06.788Z,5.56
2019-01-09T09:15:35.157Z,5.65
2019-01-09T09:18:03.519Z,5.77
2019-01-09T09:20:31.876Z,4.62
2019-01-09T09:23:00.227Z,5.82
2019-01-09T09:25:28.629Z,5.10
2019-01-09T09:27:56.944Z,5.96
2019-01-09T09:30:25.303Z,5.80
2019-01-09T09:32:53.682Z,5.93
2019-01-09T09:35:22.030Z,5.62
2019-01-09T09:37:50.375Z,5.52
2019-01-09T09:40:20.228Z,5.41
2019-01-09T09:42:48.571Z,5.46
2019-01-09T09:45:16.963Z,5.58
2019-01-09T09:47:45.444Z,5.64
2019-01-09T09:50:18.118Z,5.70
2019-01-09T09:52:46.412Z,5.66
2019-01-09T09:55:14.778Z,5.80
2019-01-09T09:57:43.170Z,6.06
2019-01-09T10:00:14.804Z,6.29
2019-01-09T10:02:43.157Z,6.29
2019-01-09T10:05:11.611Z,6.27
2019-01-09T10:07:39.882Z,6.49
2019-01-09T10:10:11.533Z,6.45
2019-01-09T10:12:39.833Z,6.75
2019-01-09T10:15:11.526Z,6.51
2019-01-09T10:17:39.829Z,6.55
2019-01-09T10:20:11.615Z,6.81
2019-01-09T10:22:40.907Z,6.79
2019-01-09T10:25:09.326Z,6.38
2019-01-09T10:27:37.650Z,6.29
2019-01-09T10:30:15.185Z,6.37
2019-01-09T10:32:43.577Z,6.34
2019-01-09T10:35:11.906Z,6.40
2019-01-09T10:37:40.306Z,6.43
2019-01-09T10:40:14.778Z,6.29
2019-01-09T10:42:43.098Z,6.43
2019-01-09T10:45:14.983Z,6.48
2019-01-09T10:47:43.245Z,6.83
2019-01-09T10:50:13.889Z,6.66
2019-01-09T10:52:42.240Z,6.39
2019-01-09T10:55:14.015Z,6.39
2019-01-09T10:57:42.371Z,6.49
2019-01-09T11:00:22.164Z,6.46
2019-01-09T11:02:50.579Z,6.64
2019-01-09T11:05:18.917Z,6.39
2019-01-09T11:07:47.280Z,6.50
2019-01-09T11:10:19.122Z,6.37
2019-01-09T11:12:47.422Z,6.44
2019-01-09T11:15:15.735Z,6.44
2019-01-09T11:17:44.108Z,6.29
2019-01-09T11:20:15.767Z,6.34
2019-01-09T11:22:44.127Z,6.22
2019-01-09T11:25:15.765Z,6.08
2019-01-09T11:27:44.123Z,6.03
2019-01-09T11:30:15.120Z,6.16
2019-01-09T11:32:43.536Z,6.21
2019-01-09T11:35:14.271Z,6.09
2019-01-09T11:37:42.738Z,5.83
2019-01-09T11:40:17.253Z,5.86
2019-01-09T11:42:45.599Z,5.70
2019-01-09T11:45:17.348Z,5.81
2019-01-09T11:47:45.601Z,5.93
2019-01-09T11:50:15.452Z,6.11
2019-01-09T11:52:43.845Z,6.05
2019-01-09T11:55:14.453Z,6.14
2019-01-09T11:57:42.821Z,6.02
2019-01-09T12:00:22.478Z,5.97
2019-01-09T12:02:50.750Z,5.98
2019-01-09T12:05:19.072Z,6.06
2019-01-09T12:07:47.437Z,6.00
2019-01-09T12:10:18.506Z,6.07
2019-01-09T12:12:46.820Z,6.22
2019-01-09T12:15:16.489Z,6.33
2019-01-09T12:17:44.760Z,6.38
2019-01-09T12:20:18.640Z,6.31
2019-01-09T12:22:47.132Z,6.13
2019-01-09T12:25:15.405Z,5.92
2019-01-09T12:27:43.809Z,5.92
2019-01-09T12:30:21.608Z,5.99
2019-01-09T12:32:49.976Z,5.88
2019-01-09T12:35:18.312Z,5.93
2019-01-09T12:37:46.671Z,6.04
2019-01-09T12:40:15.038Z,5.95
2019-01-09T12:42:43.521Z,6.18
2019-01-09T12:45:14.592Z,6.09
2019-01-09T12:47:42.989Z,6.03
2019-01-09T12:50:14.637Z,6.04
2019-01-09T12:52:42.979Z,6.18
2019-01-09T12:55:11.416Z,6.19
2019-01-09T12:57:39.860Z,6.14
2019-01-09T13:00:15.385Z,6.34
2019-01-09T13:02:43.719Z,6.27
2019-01-09T13:05:12.095Z,6.12
2019-01-09T13:07:40.433Z,5.98
2019-01-09T13:10:10.404Z,5.85
2019-01-09T13:12:38.713Z,5.82
2019-01-09T13:15:09.637Z,5.80
2019-01-09T13:17:37.971Z,5.85
2019-01-09T13:20:12.580Z,5.82
2019-01-09T13:22:41.146Z,5.78
2019-01-09T13:25:11.752Z,5.79
2019-01-09T13:27:40.207Z,5.71
2019-01-09T13:30:13.255Z,5.63
2019-01-09T13:32:41.676Z,5.67
2019-01-09T13:35:10.056Z,5.84
2019-01-09T13:37:43.386Z,5.92
2019-01-09T13:40:18.479Z,6.06
2019-01-09T13:42:47.026Z,6.16
2019-01-09T13:45:18.064Z,5.93
2019-01-09T13:47:47.781Z,5.88
2019-01-09T13:50:19.161Z,5.75
2019-01-09T13:52:47.475Z,5.58
2019-01-09T13:55:17.226Z,5.58
2019-01-09T13:57:45.502Z,5.46
2019-01-09T14:00:22.260Z,5.49
2019-01-09T14:02:50.601Z,5.50
2019-01-09T14:05:18.997Z,5.43
2019-01-09T14:07:47.310Z,5.31
2019-01-09T14:10:20.245Z,5.30
2019-01-09T14:12:49.067Z,5.23
2019-01-09T14:15:20.418Z,5.20
2019-01-09T14:17:52.505Z,5.31
2019-01-09T14:20:21.210Z,5.45
2019-01-09T14:22:49.884Z,5.48
2019-01-09T14:25:18.544Z,5.44
2019-01-09T14:27:47.013Z,5.46
2019-01-09T14:30:18.458Z,5.37
2019-01-09T14:32:46.790Z,5.40
2019-01-09T14:35:15.106Z,5.30
2019-01-09T14:37:43.935Z,5.22
2019-01-09T14:40:15.747Z,5.17
2019-01-09T14:42:44.160Z,5.01
2019-01-09T14:45:15.586Z,4.90
2019-01-09T14:47:44.691Z,4.79
2019-01-09T14:50:16.517Z,4.74
2019-01-09T14:52:45.889Z,4.63
2019-01-09T14:55:14.540Z,4.60
2019-01-09T14:57:43.588Z,4.55
2019-01-09T15:00:23.958Z,4.52
2019-01-09T15:02:52.546Z,4.42
2019-01-09T15:05:20.982Z,4.35
2019-01-09T15:07:51.791Z,4.37
2019-01-09T15:10:31.472Z,4.31
2019-01-09T15:13:00.176Z,4.25
2019-01-09T15:15:29.438Z,4.16
2019-01-09T15:17:58.486Z,4.14
2019-01-09T15:20:27.345Z,4.10
2019-01-09T15:22:56.763Z,4.07
2019-01-09T15:25:25.012Z,4.06
2019-01-09T15:27:54.681Z,3.95
2019-01-09T15:30:26.109Z,3.95
2019-01-09T15:32:54.375Z,3.88
2019-01-09T15:35:23.171Z,3.90
2019-01-09T15:37:52.482Z,3.84
2019-01-09T15:40:29.353Z,3.81
2019-01-09T15:42:58.275Z,3.76
2019-01-09T15:45:27.397Z,3.74
2019-01-09T15:47:55.834Z,3.73
2019-01-09T15:50:27.183Z,3.73
2019-01-09T15:52:55.709Z,3.71
2019-01-09T15:55:24.320Z,3.62
2019-01-09T15:57:54.394Z,3.52
2019-01-09T16:00:28.904Z,3.54
2019-01-09T16:02:57.445Z,3.50
2019-01-09T16:05:25.711Z,3.50
2019-01-09T16:07:54.123Z,3.52
2019-01-09T16:10:24.123Z,3.47
2019-01-09T16:12:53.598Z,3.46
2019-01-09T16:15:22.206Z,3.42
2019-01-09T16:17:51.313Z,3.39
2019-01-09T16:20:22.427Z,3.32
2019-01-09T16:22:50.722Z,3.25
2019-01-09T16:25:19.954Z,3.21
2019-01-09T16:27:52.107Z,3.20
2019-01-09T16:30:38.954Z,3.17
2019-01-09T16:33:07.453Z,3.16
2019-01-09T16:35:50.631Z,3.16
2019-01-09T16:38:34.097Z,3.10
2019-01-09T16:41:16.685Z,3.09
2019-01-09T16:43:46.158Z,3.07
2019-01-09T16:46:14.595Z,3.04
2019-01-09T16:48:42.860Z,2.99
2019-01-09T16:51:11.136Z,2.96
2019-01-09T16:53:39.571Z,2.93
2019-01-09T16:56:08.501Z,2.92
2019-01-09T16:58:37.885Z,2.88
2019-01-09T17:01:07.392Z,2.91
2019-01-09T17:03:35.700Z,2.83
2019-01-09T17:06:04.048Z,2.78
2019-01-09T17:08:32.521Z,2.72
2019-01-09T17:11:00.862Z,2.72
2019-01-09T17:13:29.572Z,2.68
2019-01-09T17:15:57.924Z,2.67
2019-01-09T17:18:26.344Z,2.63
2019-01-09T17:20:54.639Z,2.60
2019-01-09T17:23:23.039Z,2.56
2019-01-09T17:25:51.445Z,2.55
2019-01-09T17:28:19.804Z,2.54
2019-01-09T17:30:48.136Z,2.52
2019-01-09T17:33:16.537Z,2.49
2019-01-09T17:35:44.802Z,2.46
2019-01-09T17:38:13.262Z,2.42
2019-01-09T17:40:41.591Z,2.41
2019-01-09T17:43:10.041Z,2.39
2019-01-09T17:45:38.401Z,2.35
2019-01-09T17:48:06.964Z,2.36
2019-01-09T17:50:38.066Z,2.31
2019-01-09T17:53:06.415Z,2.31
2019-01-09T17:55:50.262Z,2.24
2019-01-09T17:58:18.899Z,2.18
2019-01-09T18:00:47.831Z,2.19
2019-01-09T18:03:17.014Z,2.24
2019-01-09T18:05:45.475Z,2.17
2019-01-09T18:08:13.956Z,2.19
2019-01-09T18:10:50.063Z,2.24
2019-01-09T18:13:12.801Z,2.17
2019-01-09T18:15:41.605Z,2.17
2019-01-09T18:18:09.867Z,2.15
2019-01-09T18:20:38.480Z,2.25
2019-01-09T18:23:07.258Z,2.23
2019-01-09T18:25:36.208Z,2.15
2019-01-09T18:28:05.270Z,2.16
2019-01-09T18:30:42.711Z,2.17
2019-01-09T18:33:20.285Z,2.21
2019-01-09T18:35:55.914Z,2.17
2019-01-09T18:38:46.890Z,2.16
2019-01-09T18:41:33.559Z,2.12
2019-01-09T18:44:11.536Z,2.15
2019-01-09T18:46:51.652Z,2.17
2019-01-09T18:49:27.339Z,2.10
2019-01-09T18:52:11.497Z,2.06
2019-01-09T18:54:40.166Z,2.02
2019-01-09T18:57:08.704Z,2.04
2019-01-09T18:59:38.393Z,2.01
2019-01-09T19:02:06.907Z,1.97
2019-01-09T19:04:35.253Z,1.97
2019-01-09T19:07:07.691Z,1.95
2019-01-09T19:09:36.242Z,1.91
2019-01-09T19:12:04.691Z,1.84
2019-01-09T19:14:33.418Z,1.81
2019-01-09T19:17:01.967Z,1.74
2019-01-09T19:19:30.545Z,1.71
2019-01-09T19:21:58.884Z,1.66
2019-01-09T19:24:27.835Z,1.64
2019-01-09T19:26:58.843Z,1.66
2019-01-09T19:29:29.734Z,1.60
2019-01-09T19:32:05.739Z,1.30
2019-01-09T19:34:35.338Z,1.49
2019-01-09T19:37:06.783Z,1.47
2019-01-09T19:39:36.116Z,1.43
2019-01-09T19:42:04.537Z,1.43
2019-01-09T19:44:32.917Z,1.42
2019-01-09T19:47:01.208Z,1.34
2019-01-09T19:49:38.260Z,1.29
2019-01-09T19:52:06.674Z,1.26
2019-01-09T19:54:35.028Z,1.15
2019-01-09T19:57:03.413Z,1.16
2019-01-09T19:59:31.680Z,1.19
2019-01-09T20:02:00.045Z,1.13
2019-01-09T20:04:28.534Z,1.09
2019-01-09T20:06:56.868Z,1.00
2019-01-09T20:09:25.201Z,0.95
2019-01-09T20:11:53.671Z,0.91
2019-01-09T20:14:22.068Z,0.91
2019-01-09T20:16:50.455Z,0.86
2019-01-09T20:19:18.746Z,0.84
2019-01-09T20:21:47.173Z,0.81
2019-01-09T20:24:17.197Z,0.79
2019-01-09T20:26:45.507Z,0.78
2019-01-09T20:29:13.757Z,0.77
2019-01-09T20:31:42.158Z,0.82
2019-01-09T20:34:10.980Z,0.82
2019-01-09T20:36:39.542Z,0.78
2019-01-09T20:39:20.147Z,0.81
2019-01-09T20:41:48.983Z,0.83
2019-01-09T20:44:17.344Z,0.84
2019-01-09T20:46:46.220Z,0.87
2019-01-09T20:49:14.920Z,0.89
2019-01-09T20:51:43.583Z,0.84
2019-01-09T20:54:12.069Z,0.84
2019-01-09T20:56:40.399Z,0.81
2019-01-09T20:59:09.883Z,0.78
2019-01-09T21:01:38.779Z,0.78
2019-01-09T21:04:07.164Z,0.75
2019-01-09T21:06:35.921Z,0.80
2019-01-09T21:09:05.219Z,0.83
2019-01-09T21:11:43.948Z,0.90
2019-01-09T21:14:04.355Z,0.91
2019-01-09T21:16:32.702Z,0.97
2019-01-09T21:19:07.771Z,0.97
2019-01-09T21:21:37.132Z,0.96
2019-01-09T21:24:07.590Z,0.99
2019-01-09T21:26:36.069Z,0.97
2019-01-09T21:29:10.155Z,0.95
2019-01-09T21:31:38.729Z,0.95
2019-01-09T21:34:08.914Z,0.96
2019-01-09T21:36:37.353Z,0.96
2019-01-09T21:39:08.561Z,0.94
2019-01-09T21:41:36.880Z,0.87
2019-01-09T21:44:05.433Z,0.78
2019-01-09T21:46:33.716Z,0.68
2019-01-09T21:49:02.049Z,0.69
2019-01-09T21:51:31.801Z,0.66
2019-01-09T21:54:01.841Z,0.67
2019-01-09T21:56:30.257Z,0.69
2019-01-09T21:58:58.579Z,0.64
2019-01-09T22:01:30.738Z,0.64
2019-01-09T22:04:00.231Z,0.60
2019-01-09T22:06:28.642Z,0.56
2019-01-09T22:08:57.046Z,0.58
2019-01-09T22:11:25.497Z,0.62
2019-01-09T22:13:53.874Z,0.63
2019-01-09T22:16:22.284Z,0.59
2019-01-09T22:18:50.720Z,0.58
2019-01-09T22:21:19.893Z,0.63
2019-01-09T22:23:48.160Z,0.63
2019-01-09T22:26:17.938Z,-0.55
2019-01-09T22:28:47.242Z,0.63
2019-01-09T22:31:16.502Z,0.62
2019-01-09T22:33:45.742Z,0.63
2019-01-09T22:36:14.171Z,0.71
2019-01-09T22:38:42.454Z,0.65
2019-01-09T22:41:10.781Z,0.66
2019-01-09T22:43:39.159Z,0.70
2019-01-09T22:46:07.575Z,0.70
2019-01-09T22:48:36.345Z,0.68
2019-01-09T22:51:05.521Z,0.73
2019-01-09T22:53:33.818Z,0.70
2019-01-09T22:56:02.320Z,0.71
2019-01-09T22:58:30.642Z,0.67
2019-01-09T23:01:00.162Z,0.60
2019-01-09T23:03:28.486Z,0.58
2019-01-09T23:05:56.846Z,0.53
2019-01-09T23:08:25.183Z,0.51
2019-01-09T23:10:55.042Z,0.47
2019-01-09T23:13:23.586Z,0.48
2019-01-09T23:15:51.930Z,0.47
2019-01-09T23:18:20.207Z,0.54
2019-01-09T23:20:48.582Z,0.51
2019-01-09T23:23:16.877Z,0.59
2019-01-09T23:25:45.337Z,0.62
2019-01-09T23:28:13.697Z,0.63
2019-01-09T23:30:42.790Z,0.66
2019-01-09T23:33:11.122Z,0.63
2019-01-09T23:35:39.405Z,0.64
2019-01-09T23:38:07.797Z,0.67
2019-01-09T23:40:36.177Z,0.70
2019-01-09T23:43:04.657Z,0.70
2019-01-09T23:45:33.008Z,0.75
2019-01-09T23:48:01.403Z,0.77
2019-01-09T23:50:29.723Z,0.80
2019-01-09T23:52:58.927Z,0.77
2019-01-09T23:55:28.373Z,0.76
2019-01-09T23:57:58.102Z,0.77
